Terminal Aerodrome Forecast
Issued by NWS Albany, NY

Home | Current Version | Previous Version | Text Only | Print | Product List | Glossary On
Versions: 1 2 3 4 5 6 7 8 9 10 11 12 13 14 15 16 17 18 19 20 21 22
000
FTUS41 KALY 211700
TAFALB
TAF
KALB 211720Z 2118/2218 15005KT P6SM VCSH BKN015 OVC035
      TEMPO 2118/2122 3SM -TSRA BR BKN015CB OVC035
     FM212200 15005KT 5SM -SHRA BKN015 OVC030
     FM220600 VRB03KT 4SM BR VCSH SCT008 OVC012
     FM221200 VRB03KT P6SM VCSH SCT008 OVC015=

USA.gov is the U.S. government's official web portal to all federal, state and local government web resources and services.